sensor_id;sensor_type;location;lat;lon;timestamp;pressure;altitude;pressure_sealevel;temperature;humidity
9889;BME280;4983;42.112;24.738;2022-08-19T00:00:01;99158.06;;;26.39;nan
9889;BME280;4983;42.112;24.738;2022-08-19T00:02:30;99154.97;;;25.98;nan
9889;BME280;4983;42.112;24.738;2022-08-19T00:04:58;99154.66;;;25.94;nan
9889;BME280;4983;42.112;24.738;2022-08-19T00:07:25;99156.25;;;25.90;nan
9889;BME280;4983;42.112;24.738;2022-08-19T00:09:52;99147.63;;;26.08;nan
9889;BME280;4983;42.112;24.738;2022-08-19T00:12:19;99156.72;;;26.04;nan
9889;BME280;4983;42.112;24.738;2022-08-19T00:14:47;99160.03;;;26.01;nan
9889;BME280;4983;42.112;24.738;2022-08-19T00:17:14;99159.09;;;26.12;nan
9889;BME280;4983;42.112;24.738;2022-08-19T00:19:41;99162.03;;;25.89;nan
9889;BME280;4983;42.112;24.738;2022-08-19T00:22:08;99163.53;;;25.80;nan
9889;BME280;4983;42.112;24.738;2022-08-19T00:24:35;99160.88;;;25.52;nan
9889;BME280;4983;42.112;24.738;2022-08-19T00:27:03;99159.88;;;25.41;nan
9889;BME280;4983;42.112;24.738;2022-08-19T00:29:31;99154.22;;;25.36;nan
9889;BME280;4983;42.112;24.738;2022-08-19T00:31:59;99146.25;;;25.40;nan
9889;BME280;4983;42.112;24.738;2022-08-19T00:34:26;99139.78;;;25.18;nan
9889;BME280;4983;42.112;24.738;2022-08-19T00:36:54;99146.44;;;24.89;nan
9889;BME280;4983;42.112;24.738;2022-08-19T00:39:22;99139.56;;;24.91;nan
9889;BME280;4983;42.112;24.738;2022-08-19T00:41:50;99142.09;;;25.09;nan
9889;BME280;4983;42.112;24.738;2022-08-19T00:44:21;99142.41;;;24.96;nan
9889;BME280;4983;42.112;24.738;2022-08-19T00:46:49;99137.06;;;25.06;nan
9889;BME280;4983;42.112;24.738;2022-08-19T00:49:22;99138.47;;;24.92;nan
9889;BME280;4983;42.112;24.738;2022-08-19T00:51:54;99122.09;;;24.91;nan
9889;BME280;4983;42.112;24.738;2022-08-19T00:54:22;99128.38;;;24.86;nan
9889;BME280;4983;42.112;24.738;2022-08-19T00:56:51;99120.81;;;24.82;nan
9889;BME280;4983;42.112;24.738;2022-08-19T00:59:19;99114.28;;;24.88;nan
9889;BME280;4983;42.112;24.738;2022-08-19T01:01:46;99111.69;;;24.98;nan
9889;BME280;4983;42.112;24.738;2022-08-19T01:04:13;99105.38;;;24.86;nan
9889;BME280;4983;42.112;24.738;2022-08-19T01:06:42;99114.41;;;24.53;nan
9889;BME280;4983;42.112;24.738;2022-08-19T01:09:09;99109.13;;;24.52;nan
9889;BME280;4983;42.112;24.738;2022-08-19T01:11:40;99110.91;;;24.69;nan
9889;BME280;4983;42.112;24.738;2022-08-19T01:14:09;99103.94;;;24.55;nan
9889;BME280;4983;42.112;24.738;2022-08-19T01:16:37;99108.16;;;24.58;nan
9889;BME280;4983;42.112;24.738;2022-08-19T01:19:10;99107.34;;;24.46;nan
9889;BME280;4983;42.112;24.738;2022-08-19T01:21:43;99102.63;;;24.58;nan
9889;BME280;4983;42.112;24.738;2022-08-19T01:24:15;99117.16;;;24.25;nan
9889;BME280;4983;42.112;24.738;2022-08-19T01:26:43;99113.06;;;24.28;nan
9889;BME280;4983;42.112;24.738;2022-08-19T01:29:11;99104.88;;;24.33;nan
9889;BME280;4983;42.112;24.738;2022-08-19T01:31:38;99116.63;;;24.12;nan
9889;BME280;4983;42.112;24.738;2022-08-19T01:34:07;99122.84;;;24.19;nan
9889;BME280;4983;42.112;24.738;2022-08-19T01:36:38;99126.63;;;23.90;nan
9889;BME280;4983;42.112;24.738;2022-08-19T01:39:10;99130.78;;;24.15;nan
9889;BME280;4983;42.112;24.738;2022-08-19T01:41:39;99131.63;;;24.16;nan
9889;BME280;4983;42.112;24.738;2022-08-19T01:44:08;99138.63;;;24.07;nan
9889;BME280;4983;42.112;24.738;2022-08-19T01:46:35;99140.25;;;24.19;nan
9889;BME280;4983;42.112;24.738;2022-08-19T01:49:04;99153.53;;;24.06;nan
9889;BME280;4983;42.112;24.738;2022-08-19T01:51:32;99158.31;;;23.99;nan
9889;BME280;4983;42.112;24.738;2022-08-19T01:53:59;99157.72;;;24.20;nan
9889;BME280;4983;42.112;24.738;2022-08-19T01:56:26;99155.16;;;24.30;nan
9889;BME280;4983;42.112;24.738;2022-08-19T01:58:58;99166.16;;;24.02;nan
9889;BME280;4983;42.112;24.738;2022-08-19T02:01:26;99173.94;;;24.16;nan
9889;BME280;4983;42.112;24.738;2022-08-19T02:03:58;99167.28;;;24.29;nan
9889;BME280;4983;42.112;24.738;2022-08-19T02:06:26;99174.72;;;24.40;nan
9889;BME280;4983;42.112;24.738;2022-08-19T02:08:54;99169.53;;;24.55;nan
9889;BME280;4983;42.112;24.738;2022-08-19T02:11:23;99170.88;;;24.41;nan
9889;BME280;4983;42.112;24.738;2022-08-19T02:13:52;99179.03;;;24.47;nan
9889;BME280;4983;42.112;24.738;2022-08-19T02:16:21;99172.06;;;24.56;nan
9889;BME280;4983;42.112;24.738;2022-08-19T02:18:48;99178.91;;;24.54;nan
9889;BME280;4983;42.112;24.738;2022-08-19T02:21:16;99189.63;;;24.50;nan
9889;BME280;4983;42.112;24.738;2022-08-19T02:23:44;99190.91;;;24.20;nan
9889;BME280;4983;42.112;24.738;2022-08-19T02:26:11;99202.31;;;24.23;nan
9889;BME280;4983;42.112;24.738;2022-08-19T02:28:39;99191.50;;;24.10;nan
9889;BME280;4983;42.112;24.738;2022-08-19T02:31:09;99192.47;;;24.16;nan
9889;BME280;4983;42.112;24.738;2022-08-19T02:33:37;99194.59;;;23.79;nan
9889;BME280;4983;42.112;24.738;2022-08-19T02:36:05;99192.94;;;23.67;nan
9889;BME280;4983;42.112;24.738;2022-08-19T02:38:33;99189.56;;;23.65;nan
9889;BME280;4983;42.112;24.738;2022-08-19T02:41:02;99203.53;;;23.17;nan
9889;BME280;4983;42.112;24.738;2022-08-19T02:43:31;99199.28;;;23.15;nan
9889;BME280;4983;42.112;24.738;2022-08-19T02:45:59;99204.22;;;23.13;nan
9889;BME280;4983;42.112;24.738;2022-08-19T02:48:27;99204.91;;;23.08;nan
9889;BME280;4983;42.112;24.738;2022-08-19T02:50:56;99206.88;;;23.19;nan
9889;BME280;4983;42.112;24.738;2022-08-19T02:53:25;99209.56;;;23.26;nan
9889;BME280;4983;42.112;24.738;2022-08-19T02:55:53;99208.66;;;23.14;nan
9889;BME280;4983;42.112;24.738;2022-08-19T02:58:22;99210.06;;;23.34;nan
9889;BME280;4983;42.112;24.738;2022-08-19T03:00:51;99210.81;;;23.64;nan
9889;BME280;4983;42.112;24.738;2022-08-19T03:03:19;99207.22;;;23.64;nan
9889;BME280;4983;42.112;24.738;2022-08-19T03:05:47;99216.59;;;23.51;nan
9889;BME280;4983;42.112;24.738;2022-08-19T03:08:15;99215.97;;;23.49;nan
9889;BME280;4983;42.112;24.738;2022-08-19T03:10:44;99213.06;;;23.33;nan
9889;BME280;4983;42.112;24.738;2022-08-19T03:13:14;99210.38;;;23.26;nan
9889;BME280;4983;42.112;24.738;2022-08-19T03:15:42;99208.59;;;23.02;nan
9889;BME280;4983;42.112;24.738;2022-08-19T03:18:10;99216.03;;;23.31;nan
9889;BME280;4983;42.112;24.738;2022-08-19T03:20:41;99217.97;;;23.01;nan
9889;BME280;4983;42.112;24.738;2022-08-19T03:23:08;99221.56;;;23.02;nan
9889;BME280;4983;42.112;24.738;2022-08-19T03:25:41;99216.66;;;23.04;nan
9889;BME280;4983;42.112;24.738;2022-08-19T03:28:10;99220.47;;;23.21;nan
9889;BME280;4983;42.112;24.738;2022-08-19T03:30:37;99221.19;;;23.28;nan
9889;BME280;4983;42.112;24.738;2022-08-19T03:33:06;99223.38;;;23.26;nan
9889;BME280;4983;42.112;24.738;2022-08-19T03:35:33;99226.41;;;23.36;nan
9889;BME280;4983;42.112;24.738;2022-08-19T03:38:02;99228.69;;;23.39;nan
9889;BME280;4983;42.112;24.738;2022-08-19T03:40:29;99238.31;;;23.48;nan
9889;BME280;4983;42.112;24.738;2022-08-19T03:42:57;99234.41;;;23.26;nan
9889;BME280;4983;42.112;24.738;2022-08-19T03:45:24;99235.94;;;23.22;nan
9889;BME280;4983;42.112;24.738;2022-08-19T03:47:51;99239.47;;;23.11;nan
9889;BME280;4983;42.112;24.738;2022-08-19T03:50:18;99236.72;;;23.11;nan
9889;BME280;4983;42.112;24.738;2022-08-19T03:52:48;99240.75;;;23.26;nan
9889;BME280;4983;42.112;24.738;2022-08-19T03:55:16;99237.84;;;22.92;nan
9889;BME280;4983;42.112;24.738;2022-08-19T03:57:43;99231.16;;;23.17;nan
9889;BME280;4983;42.112;24.738;2022-08-19T04:00:16;99251.00;;;23.08;nan
9889;BME280;4983;42.112;24.738;2022-08-19T04:02:44;99239.22;;;23.30;nan
9889;BME280;4983;42.112;24.738;2022-08-19T04:05:11;99247.88;;;23.34;nan
9889;BME280;4983;42.112;24.738;2022-08-19T04:07:39;99243.00;;;23.47;nan
9889;BME280;4983;42.112;24.738;2022-08-19T04:10:07;99246.25;;;23.56;nan
9889;BME280;4983;42.112;24.738;2022-08-19T04:12:36;99246.13;;;23.51;nan
9889;BME280;4983;42.112;24.738;2022-08-19T04:15:04;99247.56;;;23.53;nan
9889;BME280;4983;42.112;24.738;2022-08-19T04:17:33;99261.59;;;23.40;nan
9889;BME280;4983;42.112;24.738;2022-08-19T04:20:00;99257.16;;;23.39;nan
9889;BME280;4983;42.112;24.738;2022-08-19T04:22:27;99250.06;;;23.43;nan
9889;BME280;4983;42.112;24.738;2022-08-19T04:24:54;99253.69;;;23.44;nan
9889;BME280;4983;42.112;24.738;2022-08-19T04:27:20;99251.91;;;23.20;nan
9889;BME280;4983;42.112;24.738;2022-08-19T04:29:47;99247.91;;;23.16;nan
9889;BME280;4983;42.112;24.738;2022-08-19T04:32:14;99252.13;;;23.48;nan
9889;BME280;4983;42.112;24.738;2022-08-19T04:34:43;99255.50;;;23.50;nan
9889;BME280;4983;42.112;24.738;2022-08-19T04:37:10;99261.16;;;23.55;nan
9889;BME280;4983;42.112;24.738;2022-08-19T04:39:39;99258.97;;;23.57;nan
9889;BME280;4983;42.112;24.738;2022-08-19T04:42:24;99258.97;;;23.45;nan
9889;BME280;4983;42.112;24.738;2022-08-19T04:45:08;99259.78;;;23.46;nan
9889;BME280;4983;42.112;24.738;2022-08-19T04:47:36;99261.88;;;23.62;nan
9889;BME280;4983;42.112;24.738;2022-08-19T04:50:05;99256.69;;;23.95;nan
9889;BME280;4983;42.112;24.738;2022-08-19T04:52:34;99266.03;;;24.17;nan
9889;BME280;4983;42.112;24.738;2022-08-19T04:55:01;99262.81;;;24.20;nan
9889;BME280;4983;42.112;24.738;2022-08-19T04:57:28;99268.47;;;24.25;nan
9889;BME280;4983;42.112;24.738;2022-08-19T04:59:56;99266.19;;;24.33;nan
9889;BME280;4983;42.112;24.738;2022-08-19T05:02:23;99266.28;;;24.50;nan
9889;BME280;4983;42.112;24.738;2022-08-19T05:04:51;99265.19;;;24.51;nan
9889;BME280;4983;42.112;24.738;2022-08-19T05:07:20;99255.56;;;24.53;nan
9889;BME280;4983;42.112;24.738;2022-08-19T05:09:47;99263.25;;;24.51;nan
9889;BME280;4983;42.112;24.738;2022-08-19T05:12:14;99265.06;;;24.69;nan
9889;BME280;4983;42.112;24.738;2022-08-19T05:14:41;99270.31;;;24.82;nan
9889;BME280;4983;42.112;24.738;2022-08-19T05:17:10;99272.72;;;24.78;nan
9889;BME280;4983;42.112;24.738;2022-08-19T05:19:36;99277.50;;;24.94;nan
9889;BME280;4983;42.112;24.738;2022-08-19T05:22:22;99277.63;;;24.99;nan
9889;BME280;4983;42.112;24.738;2022-08-19T05:25:06;99276.75;;;24.99;nan
9889;BME280;4983;42.112;24.738;2022-08-19T05:27:34;99277.44;;;25.06;nan
9889;BME280;4983;42.112;24.738;2022-08-19T05:30:01;99269.00;;;25.24;nan
9889;BME280;4983;42.112;24.738;2022-08-19T05:32:28;99279.09;;;25.30;nan
9889;BME280;4983;42.112;24.738;2022-08-19T05:34:56;99276.22;;;25.13;nan
9889;BME280;4983;42.112;24.738;2022-08-19T05:37:24;99268.78;;;25.14;nan
9889;BME280;4983;42.112;24.738;2022-08-19T05:39:53;99273.56;;;25.18;nan
9889;BME280;4983;42.112;24.738;2022-08-19T05:42:21;99272.59;;;25.24;nan
9889;BME280;4983;42.112;24.738;2022-08-19T05:44:49;99275.25;;;25.31;nan
9889;BME280;4983;42.112;24.738;2022-08-19T05:47:17;99272.91;;;25.39;nan
9889;BME280;4983;42.112;24.738;2022-08-19T05:49:45;99274.69;;;25.62;nan
9889;BME280;4983;42.112;24.738;2022-08-19T05:52:14;99264.28;;;25.69;nan
9889;BME280;4983;42.112;24.738;2022-08-19T05:54:43;99269.44;;;25.77;nan
9889;BME280;4983;42.112;24.738;2022-08-19T05:57:13;99267.94;;;26.02;nan
9889;BME280;4983;42.112;24.738;2022-08-19T05:59:40;99270.63;;;26.14;nan
9889;BME280;4983;42.112;24.738;2022-08-19T06:02:08;99280.06;;;26.13;nan
9889;BME280;4983;42.112;24.738;2022-08-19T06:04:35;99269.28;;;26.16;nan
9889;BME280;4983;42.112;24.738;2022-08-19T06:07:03;99275.09;;;26.15;nan
9889;BME280;4983;42.112;24.738;2022-08-19T06:09:30;99276.50;;;26.17;nan
9889;BME280;4983;42.112;24.738;2022-08-19T06:11:59;99277.41;;;26.23;nan
9889;BME280;4983;42.112;24.738;2022-08-19T06:14:30;99280.59;;;26.31;nan
9889;BME280;4983;42.112;24.738;2022-08-19T06:16:58;99280.06;;;26.51;nan
9889;BME280;4983;42.112;24.738;2022-08-19T06:19:28;99277.75;;;26.81;nan
9889;BME280;4983;42.112;24.738;2022-08-19T06:21:56;99284.00;;;26.71;nan
9889;BME280;4983;42.112;24.738;2022-08-19T06:24:25;99288.13;;;26.90;nan
9889;BME280;4983;42.112;24.738;2022-08-19T06:26:55;99285.31;;;27.07;nan
9889;BME280;4983;42.112;24.738;2022-08-19T06:29:26;99274.44;;;27.05;nan
9889;BME280;4983;42.112;24.738;2022-08-19T06:31:55;99284.63;;;27.16;nan
9889;BME280;4983;42.112;24.738;2022-08-19T06:34:23;99285.44;;;27.38;nan
9889;BME280;4983;42.112;24.738;2022-08-19T06:36:51;99287.88;;;27.56;nan
9889;BME280;4983;42.112;24.738;2022-08-19T06:39:20;99284.53;;;27.59;nan
9889;BME280;4983;42.112;24.738;2022-08-19T06:41:51;99299.78;;;27.78;nan
9889;BME280;4983;42.112;24.738;2022-08-19T06:44:19;99290.91;;;27.81;nan
9889;BME280;4983;42.112;24.738;2022-08-19T06:46:47;99297.91;;;27.84;nan
9889;BME280;4983;42.112;24.738;2022-08-19T06:49:16;99298.81;;;27.94;nan
9889;BME280;4983;42.112;24.738;2022-08-19T06:51:46;99298.41;;;28.12;nan
9889;BME280;4983;42.112;24.738;2022-08-19T06:54:14;99297.25;;;28.03;nan
9889;BME280;4983;42.112;24.738;2022-08-19T06:56:41;99305.09;;;28.11;nan
9889;BME280;4983;42.112;24.738;2022-08-19T06:59:11;99303.78;;;28.19;nan
9889;BME280;4983;42.112;24.738;2022-08-19T07:01:41;99293.84;;;28.33;nan
9889;BME280;4983;42.112;24.738;2022-08-19T07:04:13;99289.66;;;28.30;nan
9889;BME280;4983;42.112;24.738;2022-08-19T07:06:43;99290.88;;;28.39;nan
9889;BME280;4983;42.112;24.738;2022-08-19T07:09:12;99284.75;;;28.42;nan
9889;BME280;4983;42.112;24.738;2022-08-19T07:11:44;99289.84;;;28.50;nan
9889;BME280;4983;42.112;24.738;2022-08-19T07:14:11;99282.44;;;28.76;nan
9889;BME280;4983;42.112;24.738;2022-08-19T07:16:39;99281.03;;;29.20;nan
9889;BME280;4983;42.112;24.738;2022-08-19T07:19:06;99282.44;;;29.32;nan
9889;BME280;4983;42.112;24.738;2022-08-19T07:21:35;99271.59;;;29.36;nan
9889;BME280;4983;42.112;24.738;2022-08-19T07:24:03;99265.47;;;29.49;nan
9889;BME280;4983;42.112;24.738;2022-08-19T07:26:33;99274.66;;;29.49;nan
9889;BME280;4983;42.112;24.738;2022-08-19T07:29:00;99272.53;;;29.71;nan
9889;BME280;4983;42.112;24.738;2022-08-19T07:31:28;99269.47;;;29.83;nan
9889;BME280;4983;42.112;24.738;2022-08-19T07:33:55;99277.28;;;30.06;nan
9889;BME280;4983;42.112;24.738;2022-08-19T07:36:25;99277.31;;;30.11;nan
9889;BME280;4983;42.112;24.738;2022-08-19T07:39:00;99265.88;;;30.27;nan
9889;BME280;4983;42.112;24.738;2022-08-19T07:41:29;99269.44;;;30.53;nan
9889;BME280;4983;42.112;24.738;2022-08-19T07:43:58;99267.19;;;30.70;nan
9889;BME280;4983;42.112;24.738;2022-08-19T07:46:29;99266.06;;;30.76;nan
9889;BME280;4983;42.112;24.738;2022-08-19T07:48:57;99268.03;;;30.75;nan
9889;BME280;4983;42.112;24.738;2022-08-19T07:51:25;99262.34;;;30.95;nan
9889;BME280;4983;42.112;24.738;2022-08-19T07:53:52;99256.16;;;31.08;nan
9889;BME280;4983;42.112;24.738;2022-08-19T07:56:21;99254.72;;;31.26;nan
9889;BME280;4983;42.112;24.738;2022-08-19T07:58:50;99258.88;;;31.33;nan
9889;BME280;4983;42.112;24.738;2022-08-19T08:01:21;99263.56;;;31.43;nan
9889;BME280;4983;42.112;24.738;2022-08-19T08:03:51;99265.75;;;31.51;nan
9889;BME280;4983;42.112;24.738;2022-08-19T08:06:36;99259.47;;;31.69;nan
9889;BME280;4983;42.112;24.738;2022-08-19T08:09:24;99267.91;;;31.59;nan
9889;BME280;4983;42.112;24.738;2022-08-19T08:11:54;99264.53;;;31.67;nan
9889;BME280;4983;42.112;24.738;2022-08-19T08:14:24;99262.00;;;31.65;nan
9889;BME280;4983;42.112;24.738;2022-08-19T08:16:52;99267.88;;;32.07;nan
9889;BME280;4983;42.112;24.738;2022-08-19T08:19:21;99258.69;;;32.02;nan
9889;BME280;4983;42.112;24.738;2022-08-19T08:21:49;99253.31;;;32.10;nan
9889;BME280;4983;42.112;24.738;2022-08-19T08:24:17;99252.63;;;32.23;nan
9889;BME280;4983;42.112;24.738;2022-08-19T08:26:46;99258.97;;;32.34;nan
9889;BME280;4983;42.112;24.738;2022-08-19T08:29:15;99253.03;;;32.40;nan
9889;BME280;4983;42.112;24.738;2022-08-19T08:31:43;99251.91;;;32.65;nan
9889;BME280;4983;42.112;24.738;2022-08-19T08:34:12;99248.03;;;32.89;nan
9889;BME280;4983;42.112;24.738;2022-08-19T08:36:41;99253.41;;;33.09;nan
9889;BME280;4983;42.112;24.738;2022-08-19T08:39:11;99250.84;;;33.13;nan
9889;BME280;4983;42.112;24.738;2022-08-19T08:41:44;99247.44;;;32.92;nan
9889;BME280;4983;42.112;24.738;2022-08-19T08:44:20;99246.94;;;33.09;nan
9889;BME280;4983;42.112;24.738;2022-08-19T08:46:50;99243.75;;;33.39;nan
9889;BME280;4983;42.112;24.738;2022-08-19T08:49:26;99237.38;;;33.52;nan
9889;BME280;4983;42.112;24.738;2022-08-19T08:52:00;99225.50;;;33.78;nan
9889;BME280;4983;42.112;24.738;2022-08-19T08:54:34;99230.19;;;33.64;nan
9889;BME280;4983;42.112;24.738;2022-08-19T08:57:04;99229.59;;;33.49;nan
9889;BME280;4983;42.112;24.738;2022-08-19T08:59:38;99224.03;;;33.81;nan
9889;BME280;4983;42.112;24.738;2022-08-19T09:02:06;99238.59;;;33.64;nan
9889;BME280;4983;42.112;24.738;2022-08-19T09:04:37;99218.56;;;33.89;nan
9889;BME280;4983;42.112;24.738;2022-08-19T09:07:17;99220.50;;;34.26;nan
9889;BME280;4983;42.112;24.738;2022-08-19T09:09:48;99215.91;;;34.75;nan
9889;BME280;4983;42.112;24.738;2022-08-19T09:12:19;99211.72;;;34.73;nan
9889;BME280;4983;42.112;24.738;2022-08-19T09:14:54;99210.13;;;34.53;nan
9889;BME280;4983;42.112;24.738;2022-08-19T09:17:27;99215.13;;;34.70;nan
9889;BME280;4983;42.112;24.738;2022-08-19T09:19:58;99205.56;;;34.84;nan
9889;BME280;4983;42.112;24.738;2022-08-19T09:22:30;99204.31;;;34.90;nan
9889;BME280;4983;42.112;24.738;2022-08-19T09:24:57;99201.91;;;34.97;nan
9889;BME280;4983;42.112;24.738;2022-08-19T09:27:25;99204.31;;;35.04;nan
9889;BME280;4983;42.112;24.738;2022-08-19T09:29:56;99203.47;;;35.17;nan
9889;BME280;4983;42.112;24.738;2022-08-19T09:32:23;99195.91;;;35.53;nan
9889;BME280;4983;42.112;24.738;2022-08-19T09:34:51;99197.50;;;35.81;nan
9889;BME280;4983;42.112;24.738;2022-08-19T09:37:20;99202.63;;;35.79;nan
9889;BME280;4983;42.112;24.738;2022-08-19T09:39:47;99200.31;;;35.81;nan
9889;BME280;4983;42.112;24.738;2022-08-19T09:42:14;99196.81;;;35.75;nan
9889;BME280;4983;42.112;24.738;2022-08-19T09:44:42;99197.72;;;35.71;nan
9889;BME280;4983;42.112;24.738;2022-08-19T09:47:13;99194.69;;;35.81;nan
9889;BME280;4983;42.112;24.738;2022-08-19T09:49:41;99187.59;;;36.27;nan
9889;BME280;4983;42.112;24.738;2022-08-19T09:52:09;99195.28;;;36.66;nan
9889;BME280;4983;42.112;24.738;2022-08-19T09:54:36;99193.25;;;36.66;nan
9889;BME280;4983;42.112;24.738;2022-08-19T09:57:04;99189.69;;;36.91;nan
9889;BME280;4983;42.112;24.738;2022-08-19T09:59:32;99178.28;;;37.05;nan
9889;BME280;4983;42.112;24.738;2022-08-19T10:01:59;99180.34;;;37.13;nan
9889;BME280;4983;42.112;24.738;2022-08-19T10:04:27;99180.44;;;36.99;nan
9889;BME280;4983;42.112;24.738;2022-08-19T10:07:15;99177.53;;;37.30;nan
9889;BME280;4983;42.112;24.738;2022-08-19T10:09:42;99176.44;;;36.92;nan
9889;BME280;4983;42.112;24.738;2022-08-19T10:12:09;99170.41;;;36.46;nan
9889;BME280;4983;42.112;24.738;2022-08-19T10:14:37;99163.78;;;36.50;nan
9889;BME280;4983;42.112;24.738;2022-08-19T10:17:04;99167.44;;;36.81;nan
9889;BME280;4983;42.112;24.738;2022-08-19T10:19:33;99164.63;;;36.81;nan
9889;BME280;4983;42.112;24.738;2022-08-19T10:22:04;99153.56;;;37.02;nan
9889;BME280;4983;42.112;24.738;2022-08-19T10:24:33;99157.44;;;37.40;nan
9889;BME280;4983;42.112;24.738;2022-08-19T10:27:01;99153.66;;;37.61;nan
9889;BME280;4983;42.112;24.738;2022-08-19T10:29:30;99152.50;;;37.62;nan
9889;BME280;4983;42.112;24.738;2022-08-19T10:32:00;99144.13;;;37.15;nan
9889;BME280;4983;42.112;24.738;2022-08-19T10:34:29;99145.81;;;37.33;nan
9889;BME280;4983;42.112;24.738;2022-08-19T10:36:58;99151.28;;;37.21;nan
9889;BME280;4983;42.112;24.738;2022-08-19T10:39:26;99146.97;;;37.15;nan
9889;BME280;4983;42.112;24.738;2022-08-19T10:41:55;99136.84;;;37.73;nan
9889;BME280;4983;42.112;24.738;2022-08-19T10:44:22;99139.81;;;37.94;nan
9889;BME280;4983;42.112;24.738;2022-08-19T10:46:50;99134.47;;;38.18;nan
9889;BME280;4983;42.112;24.738;2022-08-19T10:49:18;99135.94;;;38.24;nan
9889;BME280;4983;42.112;24.738;2022-08-19T10:51:46;99135.19;;;37.98;nan
9889;BME280;4983;42.112;24.738;2022-08-19T10:54:32;99131.44;;;38.31;nan
9889;BME280;4983;42.112;24.738;2022-08-19T10:57:13;99130.84;;;38.63;nan
9889;BME280;4983;42.112;24.738;2022-08-19T10:59:40;99130.25;;;38.78;nan
9889;BME280;4983;42.112;24.738;2022-08-19T11:02:09;99127.16;;;38.63;nan
9889;BME280;4983;42.112;24.738;2022-08-19T11:04:38;99121.91;;;38.82;nan
9889;BME280;4983;42.112;24.738;2022-08-19T11:07:06;99121.72;;;38.87;nan
9889;BME280;4983;42.112;24.738;2022-08-19T11:09:39;99118.63;;;38.71;nan
9889;BME280;4983;42.112;24.738;2022-08-19T11:12:08;99123.34;;;38.59;nan
9889;BME280;4983;42.112;24.738;2022-08-19T11:14:36;99118.97;;;38.24;nan
9889;BME280;4983;42.112;24.738;2022-08-19T11:17:04;99115.75;;;38.51;nan
9889;BME280;4983;42.112;24.738;2022-08-19T11:19:31;99111.75;;;38.81;nan
9889;BME280;4983;42.112;24.738;2022-08-19T11:21:59;99111.84;;;38.64;nan
9889;BME280;4983;42.112;24.738;2022-08-19T11:24:31;99108.09;;;38.51;nan
9889;BME280;4983;42.112;24.738;2022-08-19T11:27:04;99113.53;;;38.56;nan
9889;BME280;4983;42.112;24.738;2022-08-19T11:29:31;99112.50;;;38.69;nan
9889;BME280;4983;42.112;24.738;2022-08-19T11:32:02;99113.19;;;38.58;nan
9889;BME280;4983;42.112;24.738;2022-08-19T11:34:30;99104.66;;;38.29;nan
9889;BME280;4983;42.112;24.738;2022-08-19T11:36:57;99102.72;;;38.96;nan
9889;BME280;4983;42.112;24.738;2022-08-19T11:39:26;99098.97;;;39.04;nan
9889;BME280;4983;42.112;24.738;2022-08-19T11:41:54;99094.16;;;38.75;nan
9889;BME280;4983;42.112;24.738;2022-08-19T11:44:22;99088.03;;;38.94;nan
9889;BME280;4983;42.112;24.738;2022-08-19T11:46:50;99091.47;;;39.08;nan
9889;BME280;4983;42.112;24.738;2022-08-19T11:49:19;99088.88;;;38.94;nan
9889;BME280;4983;42.112;24.738;2022-08-19T11:51:47;99088.56;;;39.16;nan
9889;BME280;4983;42.112;24.738;2022-08-19T11:54:16;99083.41;;;39.39;nan
9889;BME280;4983;42.112;24.738;2022-08-19T11:56:43;99073.75;;;39.52;nan
9889;BME280;4983;42.112;24.738;2022-08-19T11:59:11;99074.59;;;39.52;nan
9889;BME280;4983;42.112;24.738;2022-08-19T12:01:39;99078.16;;;39.82;nan
9889;BME280;4983;42.112;24.738;2022-08-19T12:04:09;99073.59;;;39.69;nan
9889;BME280;4983;42.112;24.738;2022-08-19T12:06:38;99071.84;;;39.44;nan
9889;BME280;4983;42.112;24.738;2022-08-19T12:09:07;99071.19;;;38.97;nan
9889;BME280;4983;42.112;24.738;2022-08-19T12:11:38;99054.00;;;39.02;nan
9889;BME280;4983;42.112;24.738;2022-08-19T12:14:06;99061.47;;;39.27;nan
9889;BME280;4983;42.112;24.738;2022-08-19T12:16:35;99061.28;;;39.65;nan
9889;BME280;4983;42.112;24.738;2022-08-19T12:19:04;99060.34;;;39.81;nan
9889;BME280;4983;42.112;24.738;2022-08-19T12:21:34;99066.16;;;39.97;nan
9889;BME280;4983;42.112;24.738;2022-08-19T12:24:03;99056.16;;;40.11;nan
9889;BME280;4983;42.112;24.738;2022-08-19T12:26:30;99055.94;;;40.16;nan
9889;BME280;4983;42.112;24.738;2022-08-19T12:28:58;99059.09;;;40.03;nan
9889;BME280;4983;42.112;24.738;2022-08-19T12:31:26;99049.97;;;39.97;nan
9889;BME280;4983;42.112;24.738;2022-08-19T12:33:53;99054.13;;;40.12;nan
9889;BME280;4983;42.112;24.738;2022-08-19T12:36:21;99045.75;;;39.71;nan
9889;BME280;4983;42.112;24.738;2022-08-19T12:38:49;99045.94;;;39.54;nan
9889;BME280;4983;42.112;24.738;2022-08-19T12:41:17;99041.28;;;39.82;nan
9889;BME280;4983;42.112;24.738;2022-08-19T12:43:44;99036.63;;;39.65;nan
9889;BME280;4983;42.112;24.738;2022-08-19T12:46:12;99043.69;;;39.59;nan
9889;BME280;4983;42.112;24.738;2022-08-19T12:48:40;99030.59;;;39.99;nan
9889;BME280;4983;42.112;24.738;2022-08-19T12:51:09;99032.19;;;40.33;nan
9889;BME280;4983;42.112;24.738;2022-08-19T12:53:40;99027.28;;;39.65;nan
9889;BME280;4983;42.112;24.738;2022-08-19T12:56:09;99028.09;;;39.53;nan
9889;BME280;4983;42.112;24.738;2022-08-19T12:58:36;99015.69;;;39.58;nan
9889;BME280;4983;42.112;24.738;2022-08-19T13:01:08;99020.25;;;39.71;nan
9889;BME280;4983;42.112;24.738;2022-08-19T13:03:36;99024.88;;;39.75;nan
9889;BME280;4983;42.112;24.738;2022-08-19T13:06:04;99026.91;;;39.87;nan
9889;BME280;4983;42.112;24.738;2022-08-19T13:08:30;99024.09;;;39.99;nan
9889;BME280;4983;42.112;24.738;2022-08-19T13:11:06;99026.69;;;40.04;nan
9889;BME280;4983;42.112;24.738;2022-08-19T13:13:34;99019.13;;;39.84;nan
9889;BME280;4983;42.112;24.738;2022-08-19T13:16:01;99026.91;;;39.99;nan
9889;BME280;4983;42.112;24.738;2022-08-19T13:18:29;99017.47;;;39.95;nan
9889;BME280;4983;42.112;24.738;2022-08-19T13:21:01;99022.19;;;39.91;nan
9889;BME280;4983;42.112;24.738;2022-08-19T13:23:30;99021.47;;;39.94;nan
9889;BME280;4983;42.112;24.738;2022-08-19T13:26:00;99020.78;;;39.97;nan
9889;BME280;4983;42.112;24.738;2022-08-19T13:28:27;99016.31;;;40.08;nan
9889;BME280;4983;42.112;24.738;2022-08-19T13:31:16;99020.75;;;39.85;nan
9889;BME280;4983;42.112;24.738;2022-08-19T13:34:01;99012.22;;;39.73;nan
9889;BME280;4983;42.112;24.738;2022-08-19T13:36:29;99013.16;;;39.77;nan
9889;BME280;4983;42.112;24.738;2022-08-19T13:38:56;99008.47;;;39.93;nan
9889;BME280;4983;42.112;24.738;2022-08-19T13:41:25;99001.56;;;40.14;nan